WetterOnline ( http://www.wetteronline.de )

Wetter aktuell Essen

Aktuelles Wetter: Essen (161m)

6-stündlich | Neueste Meldungen
Ortszeit Temperatur Wetter
Sa, 17.11. 19:00 5.7° C wolkenlos
Sa, 17.11. 13:00 8.2° C wolkenlos
Sa, 17.11. 7:00 0.5° C wolkenlos
Sa, 17.11. 1:00 2.3° C wolkenlos
Fr, 16.11. 19:00 7.3° C wolkenlos
Fr, 16.11. 13:00 10.6° C wolkenlos
Fr, 16.11. 7:00 3.7° C wolkig
Fr, 16.11. 1:00 3.3° C fast wolkenlos
Ortszeit Temperatur Wetter
Sa, 17.11. 22:30 2.9° C wolkenlos
Sa, 17.11. 22:20 2.9° C wolkenlos
Sa, 17.11. 22:10 3.2° C wolkenlos
Sa, 17.11. 22:00 3.4° C fast wolkenlos
Sa, 17.11. 21:50 3.4° C fast wolkenlos
Sa, 17.11. 21:40 3.4° C wolkenlos
Sa, 17.11. 21:30 3.8° C wolkenlos
Sa, 17.11. 21:00 4.2° C fast wolkenlos
Sa, 17.11. 20:30 4.6° C fast wolkenlos
Sa, 17.11. 20:00 4.9° C leicht bewölkt
Sa, 17.11. 19:30 5.4° C fast wolkenlos
Ortszeit Relative Feuchte Sichtweite
Sa, 17.11. 19:00 60% 45 km
Sa, 17.11. 13:00 58% 27 km
Sa, 17.11. 7:00 93% 8 km
Sa, 17.11. 1:00 90% 11 km
Fr, 16.11. 19:00 76% 21 km
Fr, 16.11. 13:00 62% 25 km
Fr, 16.11. 7:00 87% 9 km
Fr, 16.11. 1:00 91% 12 km
Ortszeit Relative Feuchte Sichtweite
Sa, 17.11. 22:30 67% 29 km
Sa, 17.11. 22:20 67% -
Sa, 17.11. 22:10 65% -
Sa, 17.11. 22:00 65% 30 km
Sa, 17.11. 21:50 65% -
Sa, 17.11. 21:40 66% -
Sa, 17.11. 21:30 64% 30 km
Sa, 17.11. 21:00 63% 35 km
Sa, 17.11. 20:30 61% 30 km
Sa, 17.11. 20:00 61% 30 km
Sa, 17.11. 19:30 60% 35 km
Ortszeit Niederschlagsmenge Niederschlagsart
Sa, 17.11. 19:00 0.0 l/m2 in 12 Std. -
Sa, 17.11. 13:00 0.0 l/m2 in 6 Std. -
Sa, 17.11. 7:00 0.0 l/m2 in 12 Std. -
Sa, 17.11. 1:00 0.0 l/m2 in 6 Std. -
Fr, 16.11. 19:00 0.0 l/m2 in 12 Std. -
Fr, 16.11. 13:00 0.0 l/m2 in 6 Std. -
Fr, 16.11. 7:00 0.0 l/m2 in 12 Std. -
Fr, 16.11. 1:00 0.0 l/m2 in 6 Std. -
Ortszeit Niederschlagsmenge Niederschlagsart
Sa, 17.11. 22:30 0.0 l/m2 in 1 Std. -
Sa, 17.11. 22:20 keine Meldung -
Sa, 17.11. 22:10 keine Meldung -
Sa, 17.11. 22:00 0.0 l/m2 in 1 Std. -
Sa, 17.11. 21:50 keine Meldung -
Sa, 17.11. 21:40 keine Meldung -
Sa, 17.11. 21:30 0.0 l/m2 in 1 Std. -
Sa, 17.11. 21:00 0.0 l/m2 in 1 Std. -
Sa, 17.11. 20:30 0.0 l/m2 in 1 Std. -
Sa, 17.11. 20:00 0.0 l/m2 in 1 Std. -
Sa, 17.11. 19:30 0.0 l/m2 in 1 Std. -
Ortszeit Stärke Spitze Richtung
km/h Bft. km/h Grad Sektor
Sa, 17.11. 19:00 15 3 31 70° O
Sa, 17.11. 13:00 11 2 25 70° O
Sa, 17.11. 7:00 9 2 17 90° O
Sa, 17.11. 1:00 9 2 17 100° O
Fr, 16.11. 19:00 7 2 15 100° O
Fr, 16.11. 13:00 7 2 25 130° SO
Fr, 16.11. 7:00 9 2 22 140° SO
Fr, 16.11. 1:00 18 3 22 160° S
Ortszeit Stärke Spitze Richtung
km/h Bft. km/h Grad Sektor
Sa, 17.11. 22:30 13 3 28 70° O
Sa, 17.11. 22:20 13 3 - 70° O
Sa, 17.11. 22:10 14 3 - 70° O
Sa, 17.11. 22:00 11 2 36 80° O
Sa, 17.11. 21:50 11 2 - 80° O
Sa, 17.11. 21:40 13 3 - 90° O
Sa, 17.11. 21:30 13 3 33 90° O
Sa, 17.11. 21:00 14 3 32 70° O
Sa, 17.11. 20:30 13 3 31 80° O
Sa, 17.11. 20:00 13 3 31 70° O
Sa, 17.11. 19:30 14 3 32 80° O
Ortszeit Untergrenze Bedeckung Gattung
total tief tief mittel hoch
Sa, 17.11. 19:00 - 0/8 0/8 - - -
Sa, 17.11. 13:00 - 0/8 0/8 - - -
Sa, 17.11. 7:00 - 0/8 0/8 - - -
Sa, 17.11. 1:00 - 0/8 0/8 - - -
Fr, 16.11. 19:00 - 0/8 0/8 - - -
Fr, 16.11. 13:00 - 0/8 0/8 - - -
Fr, 16.11. 7:00 10500 m 8/8 0/8 - - -
Fr, 16.11. 1:00 1050 m 1/8 1/8 - - -
Ortszeit Bedeckungsgrad in Achtel und Wolkenuntergrenze
Sa, 17.11. 22:30 keine Wolken
Sa, 17.11. 22:20 keine Wolken
Sa, 17.11. 22:10 keine Wolken
Sa, 17.11. 22:00 1(7200m)
Sa, 17.11. 21:50 1(7200m)
Sa, 17.11. 21:40 keine Wolken
Sa, 17.11. 21:30 keine Wolken
Sa, 17.11. 21:00 2(7800m)
Sa, 17.11. 20:30 2(7200m)
Sa, 17.11. 20:00 5(7500m)
Sa, 17.11. 19:30 2(8100m)
Ortszeit Luftdruck NN (hPa) Tendenz (hPa in 3 Std.)
Sa, 17.11. 19:00 1031 0,0
Sa, 17.11. 13:00 1031 + 0,1
Sa, 17.11. 7:00 1031 + 0,1
Sa, 17.11. 1:00 1030 + 0,3
Fr, 16.11. 19:00 1029 + 0,3
Fr, 16.11. 13:00 1029 - 0,1
Fr, 16.11. 7:00 1028 + 1,0
Fr, 16.11. 1:00 1027 + 0,4
Ortszeit Luftdruck NN (hPa) Tendenz (hPa in 3 Std.)
Sa, 17.11. 22:30 1032 + 0,2
Sa, 17.11. 22:20 1032 keine Meldung
Sa, 17.11. 22:10 1032 keine Meldung
Sa, 17.11. 22:00 1031 + 0,5
Sa, 17.11. 21:50 1031 keine Meldung
Sa, 17.11. 21:40 1031 keine Meldung
Sa, 17.11. 21:30 1031 + 0,4
Sa, 17.11. 21:00 1031 + 0,1
Sa, 17.11. 20:30 1031 - 0,2
Sa, 17.11. 20:00 1031 + 0,1
Sa, 17.11. 19:30 1031 + 0,5
Ortszeit Schneehöhe (cm)
Sa, 17.11. 19:00 0
Sa, 17.11. 13:00 0
Sa, 17.11. 7:00 0
Sa, 17.11. 1:00 0
Fr, 16.11. 19:00 0
Fr, 16.11. 13:00 0
Fr, 16.11. 7:00 0
Fr, 16.11. 1:00 0
Ortszeit Schneehöhe (cm)
Sa, 17.11. 22:30 0
Sa, 17.11. 22:20 0
Sa, 17.11. 22:10 0
Sa, 17.11. 22:00 0
Sa, 17.11. 21:50 0
Sa, 17.11. 21:40 0
Sa, 17.11. 21:30 0
Sa, 17.11. 21:00 0
Sa, 17.11. 20:30 0
Sa, 17.11. 20:00 0
Sa, 17.11. 19:30 0
Link zu dieser Seite / Seite empfehlen

Das Wetter in ...